createdAt,value
2018-11-25T00:01:29.043Z,8.92
2018-11-25T00:04:02.320Z,9.91
2018-11-25T00:06:36.176Z,9.14
2018-11-25T00:09:11.649Z,9.60
2018-11-25T00:11:45.230Z,8.31
2018-11-25T00:14:17.727Z,8.53
2018-11-25T00:16:50.142Z,8.18
2018-11-25T00:19:22.503Z,8.60
2018-11-25T00:21:54.934Z,9.50
2018-11-25T00:24:27.318Z,8.93
2018-11-25T00:26:59.755Z,8.97
2018-11-25T00:29:33.038Z,9.01
2018-11-25T00:32:05.457Z,9.01
2018-11-25T00:34:38.331Z,8.90
2018-11-25T00:37:10.775Z,9.08
2018-11-25T00:39:43.122Z,9.50
2018-11-25T00:42:15.586Z,8.67
2018-11-25T00:44:47.989Z,8.31
2018-11-25T00:47:20.413Z,7.84
2018-11-25T00:49:52.782Z,8.99
2018-11-25T00:52:25.214Z,9.55
2018-11-25T00:54:57.596Z,10.06
2018-11-25T00:57:30.013Z,9.35
2018-11-25T01:00:02.397Z,8.62
2018-11-25T01:02:35.772Z,8.90
2018-11-25T01:05:08.810Z,10.06
2018-11-25T01:07:41.354Z,9.75
2018-11-25T01:10:17.826Z,11.45
2018-11-25T01:12:50.264Z,8.86
2018-11-25T01:15:22.680Z,6.85
2018-11-25T01:17:55.059Z,7.17
2018-11-25T01:20:27.510Z,7.51
2018-11-25T01:22:59.931Z,7.68
2018-11-25T01:25:32.417Z,7.10
2018-11-25T01:28:04.794Z,7.30
2018-11-25T01:30:37.212Z,7.58
2018-11-25T01:33:09.643Z,7.04
2018-11-25T01:35:41.995Z,7.04
2018-11-25T01:38:14.425Z,6.64
2018-11-25T01:40:46.913Z,6.98
2018-11-25T01:43:19.306Z,6.69
2018-11-25T01:45:51.713Z,7.13
2018-11-25T01:48:24.185Z,7.82
2018-11-25T01:50:56.584Z,7.48
2018-11-25T01:53:29.051Z,7.24
2018-11-25T01:56:01.526Z,7.23
2018-11-25T01:58:34.023Z,7.38
2018-11-25T02:01:06.913Z,7.67
2018-11-25T02:03:39.429Z,7.81
2018-11-25T02:06:11.802Z,7.49
2018-11-25T02:08:44.214Z,7.33
2018-11-25T02:11:16.610Z,7.09
2018-11-25T02:13:49.254Z,7.06
2018-11-25T02:16:21.832Z,6.82
2018-11-25T02:18:54.770Z,6.66
2018-11-25T02:21:27.131Z,7.24
2018-11-25T02:23:59.598Z,7.33
2018-11-25T02:26:32.113Z,7.29
2018-11-25T02:29:04.639Z,7.44
2018-11-25T02:31:37.054Z,7.07
2018-11-25T02:34:09.620Z,7.02
2018-11-25T02:36:42.018Z,7.98
2018-11-25T02:39:14.506Z,8.01
2018-11-25T02:41:47.018Z,7.74
2018-11-25T02:44:19.422Z,7.99
2018-11-25T02:46:51.813Z,7.39
2018-11-25T02:49:24.204Z,8.02
2018-11-25T02:51:56.604Z,8.24
2018-11-25T02:54:29.007Z,7.31
2018-11-25T02:57:01.418Z,7.28
2018-11-25T02:59:33.903Z,6.99
2018-11-25T03:02:06.493Z,7.07
2018-11-25T03:04:39.789Z,7.04
2018-11-25T03:07:12.261Z,7.98
2018-11-25T03:09:45.238Z,7.92
2018-11-25T03:12:17.611Z,7.82
2018-11-25T03:14:50.056Z,8.23
2018-11-25T03:17:22.435Z,8.37
2018-11-25T03:19:54.788Z,7.48
2018-11-25T03:22:27.223Z,8.30
2018-11-25T03:24:59.673Z,7.99
2018-11-25T03:27:32.279Z,8.18
2018-11-25T03:30:04.970Z,8.48
2018-11-25T03:32:37.345Z,8.61
2018-11-25T03:35:11.524Z,7.96
2018-11-25T03:37:44.061Z,8.55
2018-11-25T03:40:17.840Z,8.35
2018-11-25T03:42:50.250Z,8.17
2018-11-25T03:45:23.627Z,8.48
2018-11-25T03:47:56.020Z,8.33
2018-11-25T03:50:28.421Z,8.02
2018-11-25T03:53:00.800Z,8.36
2018-11-25T03:55:33.184Z,8.39
2018-11-25T03:58:05.651Z,7.99
2018-11-25T04:00:38.601Z,8.45
2018-11-25T04:03:10.984Z,8.79
2018-11-25T04:05:43.427Z,8.49
2018-11-25T04:08:15.821Z,8.33
2018-11-25T04:10:48.329Z,8.28
2018-11-25T04:13:21.644Z,8.45
2018-11-25T04:15:54.044Z,8.09
2018-11-25T04:18:27.340Z,8.35
2018-11-25T04:20:59.746Z,8.51
2018-11-25T04:23:32.248Z,8.49
2018-11-25T04:26:04.651Z,8.43
2018-11-25T04:28:37.026Z,8.66
2018-11-25T04:31:09.844Z,9.03
2018-11-25T04:33:42.326Z,8.13
2018-11-25T04:36:14.802Z,8.79
2018-11-25T04:38:47.165Z,9.09
2018-11-25T04:41:19.547Z,8.25
2018-11-25T04:43:51.942Z,8.09
2018-11-25T04:46:24.368Z,8.64
2018-11-25T04:48:56.740Z,8.85
2018-11-25T04:51:29.168Z,8.62
2018-11-25T04:54:01.648Z,9.03
2018-11-25T04:56:34.082Z,8.54
2018-11-25T04:59:06.516Z,8.82
2018-11-25T05:01:38.928Z,8.91
2018-11-25T05:04:11.326Z,9.15
2018-11-25T05:06:43.734Z,9.08
2018-11-25T05:09:16.102Z,8.81
2018-11-25T05:11:48.512Z,8.96
2018-11-25T05:14:20.886Z,8.78
2018-11-25T05:16:53.261Z,8.65
2018-11-25T05:19:25.683Z,8.60
2018-11-25T05:21:58.081Z,8.34
2018-11-25T05:24:30.591Z,8.81
2018-11-25T05:27:03.034Z,8.34
2018-11-25T05:29:35.450Z,8.40
2018-11-25T05:32:08.322Z,8.61
2018-11-25T05:34:40.703Z,8.90
2018-11-25T05:37:13.060Z,8.68
2018-11-25T05:39:45.586Z,8.42
2018-11-25T05:42:18.027Z,8.70
2018-11-25T05:44:50.412Z,8.99
2018-11-25T05:47:23.009Z,8.71
2018-11-25T05:49:55.399Z,9.15
2018-11-25T05:52:27.881Z,9.04
2018-11-25T05:55:00.276Z,8.49
2018-11-25T05:57:32.762Z,8.77
2018-11-25T06:00:05.297Z,8.90
2018-11-25T06:02:37.797Z,8.56
2018-11-25T06:05:10.261Z,8.79
2018-11-25T06:07:42.695Z,8.07
2018-11-25T06:10:15.926Z,8.15
2018-11-25T06:12:48.365Z,7.70
2018-11-25T06:15:21.643Z,7.59
2018-11-25T06:17:54.052Z,8.09
2018-11-25T06:20:26.430Z,7.77
2018-11-25T06:22:58.798Z,7.44
2018-11-25T06:27:55.895Z,7.92
2018-11-25T06:30:27.362Z,8.32
2018-11-25T06:32:58.871Z,7.86
2018-11-25T06:35:30.475Z,8.64
2018-11-25T06:38:01.930Z,8.33
2018-11-25T06:40:33.426Z,8.43
2018-11-25T06:43:05.072Z,8.04
2018-11-25T06:45:36.628Z,7.82
2018-11-25T06:48:08.550Z,7.81
2018-11-25T06:50:40.123Z,7.80
2018-11-25T06:53:11.658Z,7.82
2018-11-25T06:55:43.164Z,8.50
2018-11-25T06:58:14.800Z,8.82
2018-11-25T07:00:46.667Z,9.03
2018-11-25T07:03:18.174Z,9.00
2018-11-25T07:05:50.016Z,8.60
2018-11-25T07:08:21.568Z,8.24
2018-11-25T07:10:53.251Z,8.91
2018-11-25T07:13:24.934Z,9.03
2018-11-25T07:15:57.392Z,9.26
2018-11-25T07:18:28.906Z,9.20
2018-11-25T07:21:00.539Z,9.47
2018-11-25T07:23:32.125Z,9.58
2018-11-25T07:26:03.723Z,9.51
2018-11-25T07:28:35.522Z,9.59
2018-11-25T07:31:07.705Z,9.66
2018-11-25T07:33:39.241Z,8.85
2018-11-25T07:36:10.678Z,9.59
2018-11-25T07:38:42.183Z,9.75
2018-11-25T07:41:13.653Z,9.05
2018-11-25T07:43:45.322Z,9.54
2018-11-25T07:46:17.002Z,9.81
2018-11-25T07:48:48.559Z,9.23
2018-11-25T07:51:20.046Z,9.27
2018-11-25T07:53:51.589Z,9.82
2018-11-25T07:56:23.179Z,9.79
2018-11-25T07:58:54.704Z,9.96
2018-11-25T08:01:26.201Z,10.14
2018-11-25T08:03:57.689Z,10.45
2018-11-25T08:06:29.267Z,10.58
2018-11-25T08:09:00.737Z,10.59
2018-11-25T08:11:32.930Z,10.33
2018-11-25T08:14:04.420Z,10.62
2018-11-25T08:16:35.932Z,10.53
2018-11-25T08:19:07.950Z,9.86
2018-11-25T08:21:39.535Z,9.13
2018-11-25T08:24:12.011Z,9.85
2018-11-25T08:26:43.605Z,9.73
2018-11-25T08:29:15.071Z,9.68
2018-11-25T08:31:46.606Z,9.31
2018-11-25T08:34:18.104Z,9.82
2018-11-25T08:36:49.596Z,9.58
2018-11-25T08:39:21.051Z,9.78
2018-11-25T08:41:52.634Z,9.45
2018-11-25T08:44:24.116Z,9.62
2018-11-25T08:46:55.610Z,10.22
2018-11-25T08:49:27.249Z,10.59
2018-11-25T08:51:58.759Z,10.04
2018-11-25T08:54:30.293Z,9.73
2018-11-25T08:57:01.796Z,9.89
2018-11-25T08:59:33.484Z,9.71
2018-11-25T09:02:05.038Z,10.08
2018-11-25T09:04:36.546Z,10.40
2018-11-25T09:07:08.151Z,10.28
2018-11-25T09:09:39.660Z,9.70
2018-11-25T09:12:11.151Z,10.26
2018-11-25T09:14:42.663Z,10.78
2018-11-25T09:17:14.138Z,10.29
2018-11-25T09:19:45.622Z,10.75
2018-11-25T09:22:17.193Z,10.56
2018-11-25T09:24:48.736Z,10.58
2018-11-25T09:27:20.319Z,10.25
2018-11-25T09:29:51.931Z,10.35
2018-11-25T09:32:23.448Z,9.85
2018-11-25T09:34:55.039Z,9.88
2018-11-25T09:37:26.511Z,9.35
2018-11-25T09:39:58.016Z,10.26
2018-11-25T09:42:29.517Z,10.86
2018-11-25T09:45:01.169Z,10.46
2018-11-25T09:47:33.532Z,10.10
2018-11-25T09:50:05.534Z,9.89
2018-11-25T09:52:37.117Z,10.55
2018-11-25T09:55:15.273Z,10.42
2018-11-25T09:57:48.321Z,10.62
2018-11-25T10:00:24.250Z,11.48
2018-11-25T10:02:55.814Z,10.94
2018-11-25T10:05:27.408Z,11.39
2018-11-25T10:07:58.874Z,10.87
2018-11-25T10:10:30.404Z,9.36
2018-11-25T10:13:01.922Z,10.27
2018-11-25T10:15:33.479Z,11.09
2018-11-25T10:18:04.971Z,8.93
2018-11-25T10:20:36.985Z,9.20
2018-11-25T10:23:08.580Z,9.89
2018-11-25T10:25:40.203Z,10.25
2018-11-25T10:28:11.836Z,9.97
2018-11-25T10:30:43.371Z,10.10
2018-11-25T10:33:15.123Z,9.61
2018-11-25T10:35:46.690Z,9.35
2018-11-25T10:38:18.180Z,10.05
2018-11-25T10:40:49.679Z,9.83
2018-11-25T10:43:21.266Z,10.06
2018-11-25T10:45:52.976Z,10.21
2018-11-25T10:48:24.459Z,9.84
2018-11-25T10:50:55.906Z,10.65
2018-11-25T10:53:30.768Z,10.07
2018-11-25T10:56:02.379Z,10.26
2018-11-25T10:58:33.886Z,9.97
2018-11-25T11:01:22.724Z,10.61
2018-11-25T11:03:58.392Z,10.72
2018-11-25T11:06:47.261Z,10.54
2018-11-25T11:09:18.748Z,10.72
2018-11-25T11:11:50.258Z,10.79
2018-11-25T11:14:21.882Z,11.68
2018-11-25T11:16:53.940Z,10.10
2018-11-25T11:19:26.004Z,10.70
2018-11-25T11:21:57.486Z,11.37
2018-11-25T11:24:28.997Z,11.32
2018-11-25T11:27:00.558Z,11.32
2018-11-25T11:29:35.044Z,12.35
2018-11-25T11:32:06.515Z,12.81
2018-11-25T11:34:38.049Z,13.98
2018-11-25T11:37:09.661Z,12.77
2018-11-25T11:39:41.271Z,12.47
2018-11-25T11:42:13.143Z,12.54
2018-11-25T11:44:44.641Z,11.97
2018-11-25T11:47:20.259Z,11.22
2018-11-25T11:49:51.792Z,10.64
2018-11-25T11:52:23.344Z,10.93
2018-11-25T11:54:55.003Z,10.83
2018-11-25T11:57:26.450Z,10.59
2018-11-25T11:59:58.018Z,10.38
2018-11-25T12:02:31.663Z,10.09
2018-11-25T12:05:01.964Z,10.19
2018-11-25T12:07:33.584Z,10.84
2018-11-25T12:10:05.092Z,10.86
2018-11-25T12:12:36.562Z,10.31
2018-11-25T12:15:16.809Z,10.22
2018-11-25T12:17:48.340Z,10.36
2018-11-25T12:20:21.589Z,11.10
2018-11-25T12:22:54.088Z,10.69
2018-11-25T12:25:25.538Z,11.03
2018-11-25T12:27:57.132Z,9.99
2018-11-25T12:30:28.657Z,10.80
2018-11-25T12:33:00.126Z,10.33
2018-11-25T12:35:31.676Z,10.63
2018-11-25T12:38:03.224Z,10.81
2018-11-25T12:40:34.839Z,10.73
2018-11-25T12:43:06.755Z,10.69
2018-11-25T12:45:38.285Z,10.94
2018-11-25T12:48:09.857Z,10.24
2018-11-25T12:50:41.361Z,10.47
2018-11-25T12:53:12.851Z,10.49
2018-11-25T12:55:44.577Z,11.13
2018-11-25T12:58:16.726Z,11.22
2018-11-25T13:00:49.743Z,11.11
2018-11-25T13:03:21.276Z,10.90
2018-11-25T13:05:52.925Z,10.97
2018-11-25T13:08:24.554Z,10.95
2018-11-25T13:10:56.069Z,11.03
2018-11-25T13:13:28.028Z,10.83
2018-11-25T13:15:59.584Z,10.47
2018-11-25T13:18:31.282Z,10.51
2018-11-25T13:21:03.054Z,10.23
2018-11-25T13:23:34.666Z,10.63
2018-11-25T13:26:06.980Z,10.42
2018-11-25T13:28:38.978Z,9.91
2018-11-25T13:31:10.605Z,10.54
2018-11-25T13:33:42.141Z,11.18
2018-11-25T13:36:13.637Z,10.49
2018-11-25T13:38:45.128Z,10.43
2018-11-25T13:41:16.847Z,10.36
2018-11-25T13:43:48.547Z,10.08
2018-11-25T13:46:20.034Z,10.15
2018-11-25T13:48:51.948Z,10.34
2018-11-25T13:51:23.792Z,10.37
2018-11-25T13:53:58.919Z,10.15
2018-11-25T13:56:30.451Z,9.91
2018-11-25T13:59:01.934Z,10.05
2018-11-25T14:01:33.599Z,10.25
2018-11-25T14:04:05.103Z,9.85
2018-11-25T14:06:36.694Z,10.34
2018-11-25T14:09:12.688Z,9.93
2018-11-25T14:11:44.240Z,10.32
2018-11-25T14:14:15.696Z,10.74
2018-11-25T14:16:47.253Z,10.23
2018-11-25T14:19:18.808Z,10.27
2018-11-25T14:21:50.297Z,10.53
2018-11-25T14:24:21.804Z,10.56
2018-11-25T14:27:00.309Z,10.06
2018-11-25T14:29:32.200Z,10.07
2018-11-25T14:32:03.775Z,10.16
2018-11-25T14:34:35.302Z,10.24
2018-11-25T14:37:06.880Z,10.54
2018-11-25T14:39:38.340Z,10.10
2018-11-25T14:42:09.859Z,9.79
2018-11-25T14:44:41.377Z,9.57
2018-11-25T14:47:12.856Z,9.60
2018-11-25T14:49:44.547Z,9.82
2018-11-25T14:52:16.068Z,9.67
2018-11-25T14:54:51.336Z,9.64
2018-11-25T14:57:20.961Z,9.37
2018-11-25T14:59:52.962Z,9.20
2018-11-25T15:02:24.524Z,9.56
2018-11-25T15:04:56.235Z,9.15
2018-11-25T15:07:27.776Z,9.76
2018-11-25T15:10:10.833Z,9.35
2018-11-25T15:12:42.903Z,9.33
2018-11-25T15:15:15.571Z,9.06
2018-11-25T15:17:47.251Z,8.99
2018-11-25T15:20:18.701Z,9.07
2018-11-25T15:22:55.394Z,9.16
2018-11-25T15:25:35.039Z,9.02
2018-11-25T15:28:07.040Z,9.57
2018-11-25T15:30:38.961Z,9.23
2018-11-25T15:33:10.497Z,9.34
2018-11-25T15:35:42.194Z,9.05
2018-11-25T15:38:14.007Z,9.45
2018-11-25T15:40:47.800Z,9.06
2018-11-25T15:43:19.663Z,9.07
2018-11-25T15:45:51.179Z,8.92
2018-11-25T15:48:27.816Z,9.06
2018-11-25T15:50:59.402Z,9.02
2018-11-25T15:53:31.497Z,8.87
2018-11-25T15:56:05.288Z,8.80
2018-11-25T15:58:36.951Z,8.90
2018-11-25T16:01:41.625Z,8.65
2018-11-25T16:04:13.217Z,9.14
2018-11-25T16:06:45.182Z,8.96
2018-11-25T16:09:17.450Z,9.02
2018-11-25T16:11:48.998Z,8.88
2018-11-25T16:14:20.601Z,8.95
2018-11-25T16:16:52.106Z,8.74
2018-11-25T16:19:23.713Z,8.94
2018-11-25T16:21:55.443Z,8.86
2018-11-25T16:24:26.978Z,8.88
2018-11-25T16:26:58.494Z,8.90
2018-11-25T16:29:30.100Z,9.00
2018-11-25T16:32:01.604Z,8.82
2018-11-25T16:34:33.069Z,8.60
2018-11-25T16:37:04.786Z,8.78
2018-11-25T16:39:36.360Z,8.40
2018-11-25T16:42:10.598Z,8.64
2018-11-25T16:44:42.129Z,8.50
2018-11-25T16:47:13.664Z,8.64
2018-11-25T16:49:45.192Z,8.40
2018-11-25T16:52:16.636Z,8.33
2018-11-25T16:54:48.127Z,8.57
2018-11-25T16:57:19.646Z,8.17
2018-11-25T16:59:51.201Z,8.55
2018-11-25T17:02:22.787Z,8.17
2018-11-25T17:04:54.230Z,8.21
2018-11-25T17:07:25.814Z,8.19
2018-11-25T17:09:57.246Z,8.14
2018-11-25T17:12:28.839Z,8.02
2018-11-25T17:15:00.317Z,8.01
2018-11-25T17:17:32.068Z,8.50
2018-11-25T17:20:03.570Z,8.01
2018-11-25T17:22:35.067Z,8.17
2018-11-25T17:25:08.201Z,8.02
2018-11-25T17:27:39.717Z,7.74
2018-11-25T17:30:13.001Z,7.89
2018-11-25T17:32:44.869Z,8.39
2018-11-25T17:35:23.642Z,8.39
2018-11-25T17:37:55.144Z,7.87
2018-11-25T17:40:26.681Z,8.54
2018-11-25T17:42:58.187Z,8.42
2018-11-25T17:45:29.764Z,8.02
2018-11-25T17:48:01.343Z,8.34
2018-11-25T17:50:32.992Z,8.29
2018-11-25T17:53:04.493Z,8.11
2018-11-25T17:55:36.043Z,7.92
2018-11-25T17:58:08.152Z,8.50
2018-11-25T18:01:02.262Z,7.91
2018-11-25T18:03:35.104Z,7.41
2018-11-25T18:06:06.963Z,8.11
2018-11-25T18:08:38.509Z,7.89
2018-11-25T18:11:10.025Z,8.01
2018-11-25T18:13:42.506Z,7.71
2018-11-25T18:16:14.631Z,7.61
2018-11-25T18:18:55.237Z,7.78
2018-11-25T18:21:28.111Z,7.45
2018-11-25T18:24:00.175Z,7.27
2018-11-25T18:26:31.822Z,7.77
2018-11-25T18:29:03.360Z,7.92
2018-11-25T18:31:34.930Z,7.84
2018-11-25T18:34:06.528Z,8.09
2018-11-25T18:36:38.453Z,8.44
2018-11-25T18:39:13.612Z,8.26
2018-11-25T18:41:45.215Z,7.96
2018-11-25T18:44:16.834Z,7.37
2018-11-25T18:46:48.531Z,7.58
2018-11-25T18:49:20.409Z,7.53
2018-11-25T18:51:51.900Z,7.59
2018-11-25T18:54:23.454Z,7.52
2018-11-25T18:56:55.054Z,7.48
2018-11-25T18:59:27.504Z,7.47
2018-11-25T19:02:01.994Z,7.17
2018-11-25T19:04:33.693Z,7.38
2018-11-25T19:07:05.219Z,7.43
2018-11-25T19:09:38.150Z,7.89
2018-11-25T19:12:09.800Z,7.92
2018-11-25T19:14:41.956Z,7.74
2018-11-25T19:17:15.750Z,7.60
2018-11-25T19:19:48.830Z,7.43
2018-11-25T19:22:21.358Z,7.85
2018-11-25T19:24:54.451Z,7.67
2018-11-25T19:27:26.654Z,7.66
2018-11-25T19:29:58.765Z,8.09
2018-11-25T19:32:30.856Z,8.27
2018-11-25T19:35:02.915Z,7.77
2018-11-25T19:37:38.142Z,7.44
2018-11-25T19:40:20.600Z,7.48
2018-11-25T19:42:57.705Z,7.41
2018-11-25T19:45:29.796Z,7.87
2018-11-25T19:48:02.217Z,7.45
2018-11-25T19:50:41.924Z,7.38
2018-11-25T19:53:13.674Z,7.54
2018-11-25T19:55:45.185Z,7.28
2018-11-25T19:58:16.647Z,7.56
2018-11-25T20:00:48.198Z,7.45
2018-11-25T20:03:19.675Z,7.44
2018-11-25T20:05:51.319Z,7.11
2018-11-25T20:08:22.832Z,7.62
2018-11-25T20:10:55.057Z,7.16
2018-11-25T20:13:26.636Z,7.44
2018-11-25T20:16:15.405Z,7.46
2018-11-25T20:18:47.014Z,7.81
2018-11-25T20:21:36.130Z,7.26
2018-11-25T20:24:07.736Z,7.53
2018-11-25T20:26:57.893Z,7.51
2018-11-25T20:29:29.376Z,7.18
2018-11-25T20:32:18.095Z,7.51
2018-11-25T20:34:49.549Z,7.14
2018-11-25T20:37:26.951Z,7.13
2018-11-25T20:39:55.122Z,7.25
2018-11-25T20:42:26.822Z,7.37
2018-11-25T20:44:58.340Z,7.59
2018-11-25T20:47:29.911Z,6.85
2018-11-25T20:50:01.468Z,7.33
2018-11-25T20:52:50.461Z,7.41
2018-11-25T20:55:21.988Z,7.10
2018-11-25T20:57:53.596Z,7.70
2018-11-25T21:00:26.378Z,7.40
2018-11-25T21:02:58.086Z,7.13
2018-11-25T21:05:29.648Z,7.28
2018-11-25T21:08:01.204Z,7.42
2018-11-25T21:10:32.769Z,7.22
2018-11-25T21:13:04.330Z,7.64
2018-11-25T21:15:35.810Z,7.19
2018-11-25T21:18:07.821Z,7.05
2018-11-25T21:20:40.357Z,7.22
2018-11-25T21:23:12.048Z,6.86
2018-11-25T21:25:43.605Z,7.11
2018-11-25T21:28:15.307Z,7.02
2018-11-25T21:30:46.881Z,7.21
2018-11-25T21:33:18.497Z,6.80
2018-11-25T21:35:50.078Z,7.23
2018-11-25T21:38:21.667Z,6.97
2018-11-25T21:40:53.331Z,6.79
2018-11-25T21:43:24.899Z,7.06
2018-11-25T21:45:57.236Z,6.88
2018-11-25T21:48:28.994Z,7.11
2018-11-25T21:51:01.219Z,7.19
2018-11-25T21:53:33.445Z,7.07
2018-11-25T21:56:05.173Z,6.82
2018-11-25T21:58:36.750Z,7.15
2018-11-25T22:01:08.430Z,6.70
2018-11-25T22:03:42.863Z,6.79
2018-11-25T22:06:14.485Z,6.73
2018-11-25T22:08:46.190Z,6.93
2018-11-25T22:11:17.867Z,6.85
2018-11-25T22:13:49.389Z,6.82
2018-11-25T22:16:21.123Z,7.42
2018-11-25T22:18:52.818Z,7.01
2018-11-25T22:21:24.315Z,6.71
2018-11-25T22:23:56.026Z,7.38
2018-11-25T22:26:27.491Z,6.88
2018-11-25T22:28:59.030Z,6.90
2018-11-25T22:31:30.487Z,7.05
2018-11-25T22:34:02.038Z,6.82
2018-11-25T22:36:33.506Z,7.28
2018-11-25T22:39:07.194Z,7.33
2018-11-25T22:41:38.843Z,7.16
2018-11-25T22:44:10.381Z,6.86
2018-11-25T22:46:41.873Z,6.88
2018-11-25T22:49:13.395Z,7.32
2018-11-25T22:51:44.858Z,7.25
2018-11-25T22:54:16.385Z,6.92
2018-11-25T22:56:47.951Z,7.33
2018-11-25T22:59:19.586Z,6.90
2018-11-25T23:01:51.087Z,7.15
2018-11-25T23:04:58.138Z,7.18
2018-11-25T23:07:29.680Z,6.94
2018-11-25T23:10:01.123Z,6.82
2018-11-25T23:12:43.829Z,6.88
2018-11-25T23:15:17.459Z,6.32
2018-11-25T23:17:51.753Z,7.07
2018-11-25T23:20:23.669Z,7.31
2018-11-25T23:22:55.271Z,7.44
2018-11-25T23:25:26.740Z,7.22
2018-11-25T23:27:58.355Z,7.18
2018-11-25T23:30:29.888Z,6.56
2018-11-25T23:33:01.365Z,7.16
2018-11-25T23:35:35.554Z,7.18
2018-11-25T23:38:07.284Z,7.00
2018-11-25T23:40:39.494Z,7.14
2018-11-25T23:43:11.052Z,6.93
2018-11-25T23:45:42.547Z,7.34
2018-11-25T23:48:14.034Z,7.29
2018-11-25T23:50:45.517Z,7.58
2018-11-25T23:53:17.085Z,6.75
2018-11-25T23:55:48.620Z,7.22
2018-11-25T23:58:20.208Z,7.26
